createdAt,value
2019-04-25T00:00:58.875Z,19.80
2019-04-25T00:03:31.912Z,21.30
2019-04-25T00:06:02.391Z,25.43
2019-04-25T00:08:45.122Z,19.70
2019-04-25T00:11:27.315Z,23.17
2019-04-25T00:13:57.622Z,19.73
2019-04-25T00:16:29.332Z,20.67
2019-04-25T00:18:59.410Z,20.40
2019-04-25T00:21:31.784Z,19.97
2019-04-25T00:24:04.669Z,24.00
2019-04-25T00:26:48.569Z,23.37
2019-04-25T00:29:18.852Z,26.67
2019-04-25T00:31:49.307Z,21.20
2019-04-25T00:34:19.348Z,21.10
2019-04-25T00:36:49.654Z,21.37
2019-04-25T00:39:19.836Z,20.23
2019-04-25T00:41:50.251Z,20.13
2019-04-25T00:44:22.000Z,20.87
2019-04-25T00:46:56.622Z,21.67
2019-04-25T00:49:26.063Z,22.53
2019-04-25T00:51:56.251Z,23.23
2019-04-25T00:54:26.698Z,22.07
2019-04-25T00:56:57.008Z,22.43
2019-04-25T00:59:45.180Z,22.83
2019-04-25T01:02:21.340Z,22.57
2019-04-25T01:04:52.141Z,23.53
2019-04-25T01:07:23.518Z,22.57
2019-04-25T01:09:54.554Z,25.17
2019-04-25T01:12:26.594Z,23.20
2019-04-25T01:14:57.043Z,25.47
2019-04-25T01:17:27.227Z,21.97
2019-04-25T01:19:58.083Z,25.73
2019-04-25T01:22:28.413Z,25.97
2019-04-25T01:24:58.556Z,22.13
2019-04-25T01:27:28.761Z,24.80
2019-04-25T01:29:59.038Z,24.00
2019-04-25T01:32:30.855Z,21.07
2019-04-25T01:35:04.022Z,25.40
2019-04-25T01:37:38.845Z,24.80
2019-04-25T01:40:14.165Z,28.47
2019-04-25T01:42:45.860Z,22.30
2019-04-25T01:45:16.301Z,24.07
2019-04-25T01:47:48.880Z,21.20
2019-04-25T01:50:20.679Z,25.40
2019-04-25T01:52:50.565Z,27.50
2019-04-25T01:55:20.671Z,23.47
2019-04-25T01:57:50.918Z,21.93
2019-04-25T02:00:23.630Z,22.83
2019-04-25T02:02:54.904Z,24.27
2019-04-25T02:05:25.705Z,19.00
2019-04-25T02:07:55.897Z,21.63
2019-04-25T02:10:26.249Z,20.50
2019-04-25T02:13:00.844Z,19.30
2019-04-25T02:15:33.465Z,21.60
2019-04-25T02:18:03.895Z,20.33
2019-04-25T02:20:34.003Z,18.90
2019-04-25T02:23:04.613Z,18.83
2019-04-25T02:25:34.601Z,20.87
2019-04-25T02:28:05.658Z,19.77
2019-04-25T02:30:36.004Z,17.97
2019-04-25T02:33:08.888Z,21.37
2019-04-25T02:35:38.092Z,15.70
2019-04-25T02:38:09.066Z,16.37
2019-04-25T02:40:39.532Z,14.13
2019-04-25T02:43:09.720Z,17.63
2019-04-25T02:46:10.502Z,16.10
2019-04-25T02:48:48.414Z,17.00
2019-04-25T02:51:38.590Z,16.33
2019-04-25T02:54:08.962Z,15.30
2019-04-25T02:56:39.288Z,16.87
2019-04-25T02:59:09.460Z,13.43
2019-04-25T03:01:39.545Z,15.73
2019-04-25T03:04:11.377Z,18.03
2019-04-25T03:06:41.742Z,16.20
2019-04-25T03:09:15.120Z,16.00
2019-04-25T03:11:45.116Z,14.07
2019-04-25T03:14:16.208Z,15.17
2019-04-25T03:16:46.474Z,13.07
2019-04-25T03:19:18.201Z,14.60
2019-04-25T03:21:59.698Z,13.40
2019-04-25T03:24:30.542Z,14.37
2019-04-25T03:27:00.878Z,12.97
2019-04-25T03:29:31.047Z,13.70
2019-04-25T03:32:02.694Z,11.90
2019-04-25T03:34:35.114Z,17.90
2019-04-25T03:37:06.225Z,14.13
2019-04-25T03:39:36.933Z,15.83
2019-04-25T03:42:07.815Z,11.87
2019-04-25T03:44:38.087Z,10.43
2019-04-25T03:47:08.666Z,7.53
2019-04-25T03:49:39.206Z,11.00
2019-04-25T03:52:10.110Z,5.77
2019-04-25T03:54:40.422Z,7.90
2019-04-25T03:57:10.530Z,8.47
2019-04-25T03:59:41.151Z,6.33
2019-04-25T04:02:11.401Z,9.50
2019-04-25T04:04:43.400Z,10.13
2019-04-25T04:07:14.700Z,9.63
2019-04-25T04:09:45.258Z,8.67
2019-04-25T04:12:15.730Z,10.27
2019-04-25T04:14:45.897Z,9.73
2019-04-25T04:17:17.523Z,8.83
2019-04-25T04:19:55.176Z,10.43
2019-04-25T04:22:38.795Z,11.27
2019-04-25T04:25:11.588Z,9.50
2019-04-25T04:27:41.776Z,10.60
2019-04-25T04:30:12.127Z,9.07
2019-04-25T04:32:44.053Z,9.33
2019-04-25T04:35:15.135Z,9.03
2019-04-25T04:37:45.747Z,10.00
2019-04-25T04:40:17.308Z,9.30
2019-04-25T04:42:49.685Z,9.33
2019-04-25T04:45:19.981Z,9.00
2019-04-25T04:47:49.933Z,8.43
2019-04-25T04:50:20.143Z,7.97
2019-04-25T04:52:50.274Z,9.47
2019-04-25T04:55:20.421Z,7.47
2019-04-25T04:57:50.634Z,8.83
2019-04-25T05:00:21.465Z,7.13
2019-04-25T05:03:02.421Z,7.83
2019-04-25T05:05:40.134Z,7.53
2019-04-25T05:08:12.978Z,8.30
2019-04-25T05:10:49.357Z,7.57
2019-04-25T05:13:19.788Z,7.17
2019-04-25T05:15:50.131Z,8.43
2019-04-25T05:18:32.997Z,8.30
2019-04-25T05:20:51.850Z,8.07
2019-04-25T05:23:23.036Z,8.10
2019-04-25T05:25:55.655Z,8.03
2019-04-25T05:28:25.422Z,7.03
2019-04-25T05:30:59.880Z,8.23
2019-04-25T05:33:30.170Z,6.60
2019-04-25T05:36:00.290Z,6.67
2019-04-25T05:38:30.396Z,7.57
2019-04-25T05:41:04.964Z,7.97
2019-04-25T05:43:35.102Z,9.33
2019-04-25T05:46:05.544Z,10.13
2019-04-25T05:48:35.737Z,9.03
2019-04-25T05:51:05.831Z,8.43
2019-04-25T05:53:35.990Z,8.90
2019-04-25T05:56:06.102Z,9.40
2019-04-25T05:58:36.384Z,8.10
2019-04-25T06:01:06.632Z,9.57
2019-04-25T06:03:36.989Z,9.93
2019-04-25T06:06:07.226Z,8.27
2019-04-25T06:08:39.039Z,8.03
2019-04-25T06:11:10.843Z,10.60
2019-04-25T06:13:45.284Z,5.73
2019-04-25T06:16:23.675Z,6.00
2019-04-25T06:19:14.081Z,6.10
2019-04-25T06:21:38.739Z,7.27
2019-04-25T06:24:16.435Z,4.27
2019-04-25T06:26:51.085Z,5.00
2019-04-25T06:29:21.807Z,5.47
2019-04-25T06:32:04.246Z,7.70
2019-04-25T06:34:26.764Z,5.10
2019-04-25T06:36:55.666Z,4.30
2019-04-25T06:39:26.367Z,4.73
2019-04-25T06:41:56.579Z,4.03
2019-04-25T06:44:31.451Z,7.67
2019-04-25T06:47:06.260Z,4.50
2019-04-25T06:49:38.219Z,4.00
2019-04-25T06:52:08.462Z,6.03
2019-04-25T06:54:39.015Z,6.10
2019-04-25T06:57:09.220Z,5.33
2019-04-25T06:59:41.426Z,5.00
2019-04-25T07:02:11.425Z,5.30
2019-04-25T07:04:41.395Z,5.20
2019-04-25T07:07:13.089Z,7.10
2019-04-25T07:09:43.397Z,5.50
2019-04-25T07:12:14.250Z,7.23
2019-04-25T07:14:44.463Z,7.00
2019-04-25T07:17:14.492Z,8.23
2019-04-25T07:19:44.518Z,8.03
2019-04-25T07:22:15.528Z,6.87
2019-04-25T07:24:45.789Z,8.07
2019-04-25T07:27:17.401Z,6.20
2019-04-25T07:30:05.441Z,7.13
2019-04-25T07:32:43.971Z,7.10
2019-04-25T07:35:14.302Z,7.80
2019-04-25T07:37:44.497Z,6.73
2019-04-25T07:40:15.396Z,8.27
2019-04-25T07:42:45.753Z,7.70
2019-04-25T07:45:16.562Z,9.43
2019-04-25T07:47:46.713Z,8.70
2019-04-25T07:50:17.763Z,6.93
2019-04-25T07:52:47.747Z,9.10
2019-04-25T07:55:17.859Z,9.60
2019-04-25T07:57:47.905Z,7.20
2019-04-25T08:00:18.818Z,7.17
2019-04-25T08:02:48.893Z,12.10
2019-04-25T08:05:18.927Z,7.60
2019-04-25T08:07:49.017Z,6.53
2019-04-25T08:10:20.189Z,6.90
2019-04-25T08:12:53.508Z,6.37
2019-04-25T08:15:43.344Z,5.47
2019-04-25T08:18:13.942Z,5.83
2019-04-25T08:20:46.546Z,5.70
2019-04-25T08:23:15.817Z,5.00
2019-04-25T08:25:45.941Z,4.80
2019-04-25T08:28:16.164Z,5.27
2019-04-25T08:30:46.382Z,6.27
2019-04-25T08:33:16.492Z,4.53
2019-04-25T08:36:03.612Z,4.53
2019-04-25T08:38:18.489Z,5.27
2019-04-25T08:40:48.812Z,4.13
2019-04-25T08:43:18.848Z,5.43
2019-04-25T08:45:48.877Z,4.23
2019-04-25T08:48:18.773Z,6.17
2019-04-25T08:50:50.335Z,4.20
2019-04-25T08:53:21.903Z,4.20
2019-04-25T08:55:54.007Z,4.77
2019-04-25T08:58:35.396Z,6.43
2019-04-25T09:01:23.659Z,4.90
2019-04-25T09:04:10.550Z,4.53
2019-04-25T09:06:40.783Z,6.07
2019-04-25T09:09:10.779Z,4.23
2019-04-25T09:11:41.373Z,5.03
2019-04-25T09:14:11.598Z,3.77
2019-04-25T09:16:43.934Z,3.43
2019-04-25T09:19:14.268Z,5.07
2019-04-25T09:21:48.051Z,7.13
2019-04-25T09:24:15.935Z,5.10
2019-04-25T09:26:46.067Z,4.87
2019-04-25T09:29:19.625Z,3.90
2019-04-25T09:31:47.924Z,4.47
2019-04-25T09:34:18.278Z,2.83
2019-04-25T09:36:48.187Z,4.07
2019-04-25T09:39:29.742Z,4.20
2019-04-25T09:41:59.681Z,2.90
2019-04-25T09:44:46.670Z,5.27
2019-04-25T09:47:16.927Z,3.30
2019-04-25T09:49:48.304Z,3.67
2019-04-25T09:52:20.162Z,3.70
2019-04-25T09:54:53.445Z,3.17
2019-04-25T09:57:25.322Z,5.87
2019-04-25T09:59:56.888Z,4.40
2019-04-25T10:02:27.152Z,4.50
2019-04-25T10:04:57.420Z,3.67
2019-04-25T10:07:27.550Z,4.53
2019-04-25T10:09:57.568Z,3.83
2019-04-25T10:12:27.700Z,3.13
2019-04-25T10:15:16.008Z,4.17
2019-04-25T10:17:46.255Z,5.40
2019-04-25T10:20:19.057Z,5.53
2019-04-25T10:22:49.264Z,5.33
2019-04-25T10:25:19.908Z,2.33
2019-04-25T10:27:50.111Z,5.80
2019-04-25T10:30:23.550Z,3.50
2019-04-25T10:32:54.392Z,3.50
2019-04-25T10:35:24.329Z,3.13
2019-04-25T10:37:55.048Z,5.27
2019-04-25T10:40:25.660Z,1.87
2019-04-25T10:42:55.847Z,2.23
2019-04-25T10:45:26.204Z,1.73
2019-04-25T10:47:56.664Z,1.77
2019-04-25T10:50:26.864Z,1.43
2019-04-25T10:52:56.959Z,0.77
2019-04-25T10:55:27.914Z,1.70
2019-04-25T10:57:58.126Z,2.60
2019-04-25T11:00:35.947Z,1.90
2019-04-25T11:03:26.519Z,1.93
2019-04-25T11:05:57.164Z,1.53
2019-04-25T11:08:27.216Z,4.07
2019-04-25T11:10:58.626Z,1.40
2019-04-25T11:13:28.870Z,4.60
2019-04-25T11:16:11.362Z,2.47
2019-04-25T11:18:45.003Z,1.63
2019-04-25T11:21:14.690Z,1.03
2019-04-25T11:23:47.659Z,2.60
2019-04-25T11:26:16.678Z,1.73
2019-04-25T11:28:46.796Z,1.73
2019-04-25T11:31:18.454Z,1.07
2019-04-25T11:33:48.693Z,2.07
2019-04-25T11:36:18.804Z,1.50
2019-04-25T11:39:09.003Z,3.57
2019-04-25T11:41:39.278Z,1.53
2019-04-25T11:44:09.519Z,1.43
2019-04-25T11:46:39.753Z,1.60
2019-04-25T11:49:10.039Z,3.30
2019-04-25T11:51:40.289Z,1.87
2019-04-25T11:54:10.295Z,1.80
2019-04-25T11:56:40.545Z,1.33
2019-04-25T11:59:10.733Z,2.40
2019-04-25T12:01:40.900Z,2.37
2019-04-25T12:04:10.991Z,1.93
2019-04-25T12:06:41.121Z,2.10
2019-04-25T12:09:11.169Z,2.00
2019-04-25T12:11:41.185Z,2.10
2019-04-25T12:14:11.442Z,1.00
2019-04-25T12:16:41.626Z,3.63
2019-04-25T12:19:11.639Z,1.63
2019-04-25T12:21:41.839Z,2.47
2019-04-25T12:24:13.557Z,2.43
2019-04-25T12:26:46.099Z,1.73
2019-04-25T12:29:15.531Z,1.70
2019-04-25T12:31:46.488Z,2.53
2019-04-25T12:34:17.505Z,2.37
2019-04-25T12:36:48.402Z,3.50
2019-04-25T12:39:18.890Z,4.37
2019-04-25T12:41:50.415Z,1.47
2019-04-25T12:44:24.984Z,6.77
2019-04-25T12:46:57.067Z,1.60
2019-04-25T12:49:27.172Z,4.27
2019-04-25T12:51:57.454Z,3.97
2019-04-25T12:54:27.691Z,1.20
2019-04-25T12:56:58.058Z,3.17
2019-04-25T12:59:28.843Z,0.93
2019-04-25T13:01:58.968Z,4.30
2019-04-25T13:04:29.139Z,4.07
2019-04-25T13:06:59.446Z,2.80
2019-04-25T13:09:29.783Z,5.80
2019-04-25T13:11:59.789Z,4.27
2019-04-25T13:14:29.772Z,2.20
2019-04-25T13:16:59.941Z,2.10
2019-04-25T13:19:29.813Z,2.07
2019-04-25T13:22:01.016Z,1.73
2019-04-25T13:24:31.228Z,2.53
2019-04-25T13:27:04.395Z,6.30
2019-04-25T13:30:05.574Z,3.30
2019-04-25T13:32:55.535Z,3.87
2019-04-25T13:35:34.446Z,2.97
2019-04-25T13:38:04.490Z,3.13
2019-04-25T13:40:34.606Z,2.43
2019-04-25T13:43:05.262Z,2.50
2019-04-25T13:45:36.495Z,3.93
2019-04-25T13:48:06.807Z,3.63
2019-04-25T13:50:37.061Z,2.00
2019-04-25T13:53:07.174Z,4.80
2019-04-25T13:55:37.492Z,4.23
2019-04-25T13:58:07.820Z,2.73
2019-04-25T14:00:38.024Z,5.23
2019-04-25T14:03:08.555Z,4.73
2019-04-25T14:05:38.797Z,5.07
2019-04-25T14:08:09.230Z,7.80
2019-04-25T14:10:40.329Z,4.17
2019-04-25T14:13:10.870Z,5.87
2019-04-25T14:15:43.130Z,2.40
2019-04-25T14:18:18.810Z,3.10
2019-04-25T14:20:56.616Z,2.07
2019-04-25T14:23:27.404Z,2.77
2019-04-25T14:25:58.186Z,2.03
2019-04-25T14:28:30.517Z,5.93
2019-04-25T14:31:01.035Z,2.87
2019-04-25T14:33:31.536Z,5.97
2019-04-25T14:36:03.191Z,2.03
2019-04-25T14:38:33.920Z,5.67
2019-04-25T14:41:06.421Z,5.47
2019-04-25T14:43:36.504Z,4.73
2019-04-25T14:46:06.976Z,2.43
2019-04-25T14:48:37.191Z,5.80
2019-04-25T14:51:07.605Z,3.60
2019-04-25T14:53:37.623Z,1.90
2019-04-25T14:56:15.259Z,3.23
2019-04-25T14:58:44.498Z,2.80
2019-04-25T15:01:16.238Z,3.53
2019-04-25T15:03:46.298Z,2.63
2019-04-25T15:06:16.310Z,2.83
2019-04-25T15:08:46.547Z,1.77
2019-04-25T15:11:16.542Z,3.37
2019-04-25T15:13:46.702Z,4.67
2019-04-25T15:16:16.519Z,2.27
2019-04-25T15:18:47.192Z,2.77
2019-04-25T15:21:18.718Z,5.77
2019-04-25T15:23:59.606Z,2.40
2019-04-25T15:26:20.802Z,4.83
2019-04-25T15:28:50.878Z,3.10
2019-04-25T15:31:20.883Z,4.43
2019-04-25T15:33:50.943Z,3.07
2019-04-25T15:36:22.581Z,2.93
2019-04-25T15:38:57.007Z,3.00
2019-04-25T15:41:31.319Z,3.20
2019-04-25T15:44:19.251Z,4.57
2019-04-25T15:46:53.961Z,4.50
2019-04-25T15:49:24.362Z,4.07
2019-04-25T15:51:55.331Z,6.93
2019-04-25T15:54:26.377Z,3.40
2019-04-25T15:56:56.667Z,7.80
2019-04-25T15:59:27.423Z,5.17
2019-04-25T16:02:07.677Z,3.93
2019-04-25T16:04:28.966Z,1.73
2019-04-25T16:06:59.182Z,2.40
2019-04-25T16:09:29.764Z,5.03
2019-04-25T16:12:02.123Z,3.83
2019-04-25T16:14:32.000Z,4.97
2019-04-25T16:17:02.050Z,3.13
2019-04-25T16:19:32.267Z,3.37
2019-04-25T16:22:02.180Z,8.23
2019-04-25T16:24:32.334Z,5.93
2019-04-25T16:27:02.805Z,4.03
2019-04-25T16:29:34.184Z,2.53
2019-04-25T16:32:05.946Z,2.23
2019-04-25T16:34:36.051Z,3.67
2019-04-25T16:37:06.103Z,5.77
2019-04-25T16:39:36.198Z,3.37
2019-04-25T16:42:06.257Z,2.77
2019-04-25T16:44:36.306Z,2.77
2019-04-25T16:47:08.723Z,3.10
2019-04-25T16:49:39.139Z,1.93
2019-04-25T16:52:11.965Z,3.57
2019-04-25T16:54:42.669Z,4.23
2019-04-25T16:57:12.893Z,1.93
2019-04-25T16:59:43.216Z,5.13
2019-04-25T17:02:13.809Z,2.50
2019-04-25T17:04:43.890Z,5.50
2019-04-25T17:07:14.206Z,3.57
2019-04-25T17:09:44.386Z,3.73
2019-04-25T17:12:14.769Z,5.30
2019-04-25T17:14:58.819Z,3.17
2019-04-25T17:17:49.004Z,2.80
2019-04-25T17:20:21.075Z,2.47
2019-04-25T17:22:52.249Z,9.27
2019-04-25T17:25:22.799Z,3.57
2019-04-25T17:27:53.069Z,2.30
2019-04-25T17:30:23.465Z,3.93
2019-04-25T17:33:01.069Z,1.80
2019-04-25T17:35:49.309Z,4.37
2019-04-25T17:38:39.838Z,5.70
2019-04-25T17:41:10.110Z,2.93
2019-04-25T17:43:41.927Z,5.70
2019-04-25T17:46:13.647Z,3.50
2019-04-25T17:48:43.735Z,5.33
2019-04-25T17:51:13.834Z,5.87
2019-04-25T17:53:43.911Z,3.60
2019-04-25T17:56:13.880Z,5.17
2019-04-25T17:58:44.016Z,3.87
2019-04-25T18:01:15.656Z,3.20
2019-04-25T18:03:45.738Z,3.50
2019-04-25T18:06:15.820Z,5.43
2019-04-25T18:08:45.758Z,6.47
2019-04-25T18:11:15.992Z,8.17
2019-04-25T18:13:46.116Z,7.40
2019-04-25T18:16:17.975Z,4.03
2019-04-25T18:18:49.627Z,7.73
2019-04-25T18:21:19.998Z,3.37
2019-04-25T18:24:06.343Z,4.13
2019-04-25T18:26:54.445Z,3.63
2019-04-25T18:29:27.869Z,3.50
2019-04-25T18:31:57.972Z,5.97
2019-04-25T18:34:42.265Z,4.07
2019-04-25T18:37:16.681Z,6.07
2019-04-25T18:39:54.368Z,5.50
2019-04-25T18:42:42.239Z,4.07
2019-04-25T18:45:14.086Z,5.27
2019-04-25T18:47:44.582Z,6.97
2019-04-25T18:50:16.533Z,4.23
2019-04-25T18:52:48.161Z,5.87
2019-04-25T18:55:22.506Z,4.10
2019-04-25T18:57:54.277Z,3.77
2019-04-25T19:00:41.639Z,5.47
2019-04-25T19:03:22.514Z,4.00
2019-04-25T19:05:58.086Z,5.70
2019-04-25T19:08:28.386Z,5.80
2019-04-25T19:10:58.459Z,4.80
2019-04-25T19:13:28.591Z,3.77
2019-04-25T19:15:58.621Z,4.83
2019-04-25T19:18:28.709Z,3.23
2019-04-25T19:20:58.885Z,3.53
2019-04-25T19:23:29.242Z,8.63
2019-04-25T19:25:59.328Z,3.67
2019-04-25T19:28:29.803Z,2.57
2019-04-25T19:30:59.728Z,4.50
2019-04-25T19:33:35.889Z,2.97
2019-04-25T19:36:01.476Z,3.30
2019-04-25T19:38:31.662Z,5.07
2019-04-25T19:41:09.692Z,5.93
2019-04-25T19:43:44.616Z,4.70
2019-04-25T19:46:14.710Z,6.23
2019-04-25T19:48:46.913Z,3.33
2019-04-25T19:51:16.680Z,3.97
2019-04-25T19:53:47.080Z,4.20
2019-04-25T19:56:17.382Z,4.00
2019-04-25T19:58:47.408Z,3.83
2019-04-25T20:01:17.808Z,3.40
2019-04-25T20:03:56.431Z,6.23
2019-04-25T20:06:25.890Z,4.90
2019-04-25T20:08:57.583Z,5.60
2019-04-25T20:11:29.348Z,5.50
2019-04-25T20:13:59.477Z,6.07
2019-04-25T20:16:31.113Z,4.47
2019-04-25T20:19:01.353Z,5.47
2019-04-25T20:21:31.314Z,4.67
2019-04-25T20:24:02.030Z,5.40
2019-04-25T20:26:32.031Z,5.43
2019-04-25T20:29:02.257Z,5.47
2019-04-25T20:31:32.568Z,4.90
2019-04-25T20:34:06.053Z,7.03
2019-04-25T20:36:34.334Z,6.00
2019-04-25T20:39:06.448Z,6.67
2019-04-25T20:41:36.546Z,5.73
2019-04-25T20:44:06.538Z,5.43
2019-04-25T20:46:36.899Z,4.43
2019-04-25T20:49:06.854Z,6.90
2019-04-25T20:51:37.143Z,4.97
2019-04-25T20:54:07.287Z,6.17
2019-04-25T20:56:37.810Z,4.83
2019-04-25T20:59:07.807Z,4.80
2019-04-25T21:01:38.049Z,5.00
2019-04-25T21:04:13.398Z,8.70
2019-04-25T21:06:41.582Z,5.47
2019-04-25T21:09:12.189Z,5.83
2019-04-25T21:11:42.450Z,4.20
2019-04-25T21:14:14.426Z,5.10
2019-04-25T21:16:46.369Z,6.37
2019-04-25T21:19:30.515Z,3.90
2019-04-25T21:22:01.058Z,5.83
2019-04-25T21:24:31.240Z,6.90
2019-04-25T21:27:01.332Z,6.47
2019-04-25T21:29:31.599Z,4.20
2019-04-25T21:32:02.122Z,5.80
2019-04-25T21:34:32.163Z,4.63
2019-04-25T21:37:03.088Z,4.20
2019-04-25T21:39:35.567Z,7.20
2019-04-25T21:42:16.546Z,7.47
2019-04-25T21:44:46.659Z,5.17
2019-04-25T21:47:16.877Z,5.00
2019-04-25T21:49:47.218Z,4.60
2019-04-25T21:52:17.248Z,4.70
2019-04-25T21:54:48.697Z,5.70
2019-04-25T21:57:19.214Z,5.57
2019-04-25T21:59:59.059Z,5.80
2019-04-25T22:02:23.030Z,4.93
2019-04-25T22:04:54.136Z,5.43
2019-04-25T22:07:25.423Z,5.43
2019-04-25T22:09:56.916Z,5.13
2019-04-25T22:13:18.764Z,5.50
2019-04-25T22:15:49.532Z,5.77
2019-04-25T22:18:19.881Z,5.53
2019-04-25T22:20:50.417Z,5.80
2019-04-25T22:23:21.897Z,7.17
2019-04-25T22:25:52.067Z,8.63
2019-04-25T22:28:22.678Z,9.57
2019-04-25T22:30:54.831Z,7.80
2019-04-25T22:33:26.825Z,8.13
2019-04-25T22:35:59.211Z,10.40
2019-04-25T22:38:30.240Z,11.40
2019-04-25T22:43:44.212Z,11.97
2019-04-25T22:46:25.454Z,10.90
2019-04-25T22:48:49.362Z,13.07
2019-04-25T22:51:19.583Z,9.30
2019-04-25T22:53:49.803Z,12.23
2019-04-25T22:56:20.039Z,12.83
2019-04-25T22:58:50.265Z,10.83
2019-04-25T23:01:22.264Z,12.00
2019-04-25T23:04:10.076Z,10.17
2019-04-25T23:06:42.035Z,11.13
2019-04-25T23:09:12.389Z,13.40
2019-04-25T23:11:42.519Z,12.67
2019-04-25T23:14:13.080Z,12.57
2019-04-25T23:16:44.937Z,10.40
2019-04-25T23:19:14.981Z,11.07
2019-04-25T23:21:45.454Z,10.47
2019-04-25T23:24:18.816Z,12.93
2019-04-25T23:27:03.690Z,11.80
2019-04-25T23:29:34.680Z,13.13
2019-04-25T23:32:05.654Z,12.80
2019-04-25T23:34:36.603Z,11.93
2019-04-25T23:37:07.136Z,10.13
2019-04-25T23:39:37.549Z,11.03
2019-04-25T23:42:07.783Z,9.93
2019-04-25T23:44:38.206Z,13.33
2019-04-25T23:47:08.309Z,11.63
2019-04-25T23:49:38.437Z,11.03
2019-04-25T23:52:08.776Z,10.37
2019-04-25T23:54:38.843Z,13.03
2019-04-25T23:57:09.432Z,12.87
2019-04-25T23:59:39.752Z,10.60
